sensor_id;sensor_type;location;lat;lon;timestamp;P1;durP1;ratioP1;P2;durP2;ratioP2
77287;SDS011;66345;42.694;23.346;2023-05-21T00:02:08;15.13;;;8.40;;
77287;SDS011;66345;42.694;23.346;2023-05-21T00:04:36;17.55;;;8.88;;
77287;SDS011;66345;42.694;23.346;2023-05-21T00:07:04;15.90;;;8.27;;
77287;SDS011;66345;42.694;23.346;2023-05-21T00:09:30;15.57;;;8.07;;
77287;SDS011;66345;42.694;23.346;2023-05-21T00:11:56;15.98;;;8.30;;
77287;SDS011;66345;42.694;23.346;2023-05-21T00:14:21;14.87;;;8.10;;
77287;SDS011;66345;42.694;23.346;2023-05-21T00:16:47;16.40;;;8.57;;
77287;SDS011;66345;42.694;23.346;2023-05-21T00:19:13;19.65;;;8.68;;
77287;SDS011;66345;42.694;23.346;2023-05-21T00:21:38;17.33;;;8.70;;
77287;SDS011;66345;42.694;23.346;2023-05-21T00:24:04;19.03;;;9.27;;
77287;SDS011;66345;42.694;23.346;2023-05-21T00:26:30;16.05;;;8.55;;
77287;SDS011;66345;42.694;23.346;2023-05-21T00:28:56;15.20;;;8.60;;
77287;SDS011;66345;42.694;23.346;2023-05-21T00:31:22;14.45;;;8.52;;
77287;SDS011;66345;42.694;23.346;2023-05-21T00:33:47;17.63;;;9.23;;
77287;SDS011;66345;42.694;23.346;2023-05-21T00:36:13;19.08;;;9.07;;
77287;SDS011;66345;42.694;23.346;2023-05-21T00:38:41;16.73;;;8.77;;
77287;SDS011;66345;42.694;23.346;2023-05-21T00:41:10;16.83;;;9.20;;
77287;SDS011;66345;42.694;23.346;2023-05-21T00:43:36;15.63;;;9.03;;
77287;SDS011;66345;42.694;23.346;2023-05-21T00:46:05;18.73;;;10.02;;
77287;SDS011;66345;42.694;23.346;2023-05-21T00:48:40;17.33;;;9.82;;
77287;SDS011;66345;42.694;23.346;2023-05-21T00:51:06;13.52;;;9.00;;
77287;SDS011;66345;42.694;23.346;2023-05-21T00:53:32;17.20;;;10.47;;
77287;SDS011;66345;42.694;23.346;2023-05-21T00:56:01;17.02;;;9.95;;
77287;SDS011;66345;42.694;23.346;2023-05-21T00:58:28;15.60;;;10.30;;
77287;SDS011;66345;42.694;23.346;2023-05-21T01:00:53;17.55;;;9.30;;
77287;SDS011;66345;42.694;23.346;2023-05-21T01:03:21;16.77;;;9.65;;
77287;SDS011;66345;42.694;23.346;2023-05-21T01:05:49;15.23;;;9.40;;
77287;SDS011;66345;42.694;23.346;2023-05-21T01:08:17;18.02;;;9.52;;
77287;SDS011;66345;42.694;23.346;2023-05-21T01:10:45;17.53;;;9.60;;
77287;SDS011;66345;42.694;23.346;2023-05-21T01:13:12;18.50;;;9.70;;
77287;SDS011;66345;42.694;23.346;2023-05-21T01:15:39;21.05;;;9.55;;
77287;SDS011;66345;42.694;23.346;2023-05-21T01:18:04;15.82;;;9.30;;
77287;SDS011;66345;42.694;23.346;2023-05-21T01:20:31;16.53;;;9.83;;
77287;SDS011;66345;42.694;23.346;2023-05-21T01:22:57;17.35;;;9.85;;
77287;SDS011;66345;42.694;23.346;2023-05-21T01:25:24;19.17;;;10.20;;
77287;SDS011;66345;42.694;23.346;2023-05-21T01:27:50;16.38;;;10.15;;
77287;SDS011;66345;42.694;23.346;2023-05-21T01:30:17;17.17;;;9.60;;
77287;SDS011;66345;42.694;23.346;2023-05-21T01:32:47;14.52;;;8.85;;
77287;SDS011;66345;42.694;23.346;2023-05-21T01:35:21;15.50;;;8.85;;
77287;SDS011;66345;42.694;23.346;2023-05-21T01:37:52;13.90;;;9.07;;
77287;SDS011;66345;42.694;23.346;2023-05-21T01:40:29;16.60;;;9.50;;
77287;SDS011;66345;42.694;23.346;2023-05-21T01:42:59;16.38;;;9.75;;
77287;SDS011;66345;42.694;23.346;2023-05-21T01:45:27;16.33;;;9.23;;
77287;SDS011;66345;42.694;23.346;2023-05-21T01:47:56;16.15;;;8.90;;
77287;SDS011;66345;42.694;23.346;2023-05-21T01:50:22;14.80;;;9.02;;
77287;SDS011;66345;42.694;23.346;2023-05-21T01:52:51;17.52;;;8.68;;
77287;SDS011;66345;42.694;23.346;2023-05-21T01:55:21;16.45;;;8.52;;
77287;SDS011;66345;42.694;23.346;2023-05-21T01:57:50;17.98;;;8.25;;
77287;SDS011;66345;42.694;23.346;2023-05-21T02:00:21;15.85;;;9.20;;
77287;SDS011;66345;42.694;23.346;2023-05-21T02:02:48;15.02;;;9.27;;
77287;SDS011;66345;42.694;23.346;2023-05-21T02:05:15;17.37;;;8.70;;
77287;SDS011;66345;42.694;23.346;2023-05-21T02:07:43;14.35;;;8.80;;
77287;SDS011;66345;42.694;23.346;2023-05-21T02:10:10;14.43;;;8.55;;
77287;SDS011;66345;42.694;23.346;2023-05-21T02:12:35;14.15;;;8.82;;
77287;SDS011;66345;42.694;23.346;2023-05-21T02:15:01;15.37;;;8.53;;
77287;SDS011;66345;42.694;23.346;2023-05-21T02:17:28;15.20;;;8.50;;
77287;SDS011;66345;42.694;23.346;2023-05-21T02:19:58;15.90;;;8.98;;
77287;SDS011;66345;42.694;23.346;2023-05-21T02:22:35;15.82;;;9.10;;
77287;SDS011;66345;42.694;23.346;2023-05-21T02:25:02;14.73;;;8.27;;
77287;SDS011;66345;42.694;23.346;2023-05-21T02:27:28;16.73;;;8.77;;
77287;SDS011;66345;42.694;23.346;2023-05-21T02:29:56;16.73;;;8.82;;
77287;SDS011;66345;42.694;23.346;2023-05-21T02:32:21;16.30;;;9.07;;
77287;SDS011;66345;42.694;23.346;2023-05-21T02:34:47;19.17;;;9.15;;
77287;SDS011;66345;42.694;23.346;2023-05-21T02:37:14;18.33;;;8.70;;
77287;SDS011;66345;42.694;23.346;2023-05-21T02:39:39;14.37;;;8.37;;
77287;SDS011;66345;42.694;23.346;2023-05-21T02:42:05;16.23;;;8.77;;
77287;SDS011;66345;42.694;23.346;2023-05-21T02:44:30;19.98;;;9.38;;
77287;SDS011;66345;42.694;23.346;2023-05-21T02:46:56;14.67;;;8.20;;
77287;SDS011;66345;42.694;23.346;2023-05-21T02:49:21;15.00;;;8.57;;
77287;SDS011;66345;42.694;23.346;2023-05-21T02:51:47;13.73;;;8.30;;
77287;SDS011;66345;42.694;23.346;2023-05-21T02:54:12;14.77;;;8.77;;
77287;SDS011;66345;42.694;23.346;2023-05-21T02:56:38;13.45;;;8.38;;
77287;SDS011;66345;42.694;23.346;2023-05-21T02:59:04;14.43;;;8.27;;
77287;SDS011;66345;42.694;23.346;2023-05-21T03:01:30;15.17;;;8.83;;
77287;SDS011;66345;42.694;23.346;2023-05-21T03:03:55;13.75;;;8.13;;
77287;SDS011;66345;42.694;23.346;2023-05-21T03:06:21;13.17;;;8.40;;
77287;SDS011;66345;42.694;23.346;2023-05-21T03:08:46;16.73;;;8.47;;
77287;SDS011;66345;42.694;23.346;2023-05-21T03:11:12;15.15;;;8.70;;
77287;SDS011;66345;42.694;23.346;2023-05-21T03:13:37;12.67;;;8.47;;
77287;SDS011;66345;42.694;23.346;2023-05-21T03:16:03;14.27;;;9.13;;
77287;SDS011;66345;42.694;23.346;2023-05-21T03:18:29;16.58;;;9.10;;
77287;SDS011;66345;42.694;23.346;2023-05-21T03:20:54;16.90;;;9.07;;
77287;SDS011;66345;42.694;23.346;2023-05-21T03:23:22;17.75;;;8.88;;
77287;SDS011;66345;42.694;23.346;2023-05-21T03:25:48;16.60;;;9.20;;
77287;SDS011;66345;42.694;23.346;2023-05-21T03:28:14;17.23;;;8.43;;
77287;SDS011;66345;42.694;23.346;2023-05-21T03:30:41;14.95;;;8.75;;
77287;SDS011;66345;42.694;23.346;2023-05-21T03:33:10;15.13;;;8.80;;
77287;SDS011;66345;42.694;23.346;2023-05-21T03:35:39;17.90;;;8.75;;
77287;SDS011;66345;42.694;23.346;2023-05-21T03:38:04;16.23;;;8.07;;
77287;SDS011;66345;42.694;23.346;2023-05-21T03:40:30;15.13;;;8.70;;
77287;SDS011;66345;42.694;23.346;2023-05-21T03:42:55;18.20;;;8.57;;
77287;SDS011;66345;42.694;23.346;2023-05-21T03:45:21;15.20;;;8.50;;
77287;SDS011;66345;42.694;23.346;2023-05-21T03:47:47;18.87;;;8.80;;
77287;SDS011;66345;42.694;23.346;2023-05-21T03:50:13;15.48;;;8.77;;
77287;SDS011;66345;42.694;23.346;2023-05-21T03:52:38;17.33;;;7.70;;
77287;SDS011;66345;42.694;23.346;2023-05-21T03:55:04;14.98;;;8.40;;
77287;SDS011;66345;42.694;23.346;2023-05-21T03:57:30;15.27;;;7.77;;
77287;SDS011;66345;42.694;23.346;2023-05-21T03:59:56;16.08;;;8.15;;
77287;SDS011;66345;42.694;23.346;2023-05-21T04:02:24;17.57;;;8.13;;
77287;SDS011;66345;42.694;23.346;2023-05-21T04:04:50;16.40;;;8.35;;
77287;SDS011;66345;42.694;23.346;2023-05-21T04:07:17;14.60;;;8.32;;
77287;SDS011;66345;42.694;23.346;2023-05-21T04:09:46;16.23;;;8.15;;
77287;SDS011;66345;42.694;23.346;2023-05-21T04:12:11;13.37;;;8.17;;
77287;SDS011;66345;42.694;23.346;2023-05-21T04:14:38;15.70;;;8.38;;
77287;SDS011;66345;42.694;23.346;2023-05-21T04:17:05;15.87;;;8.30;;
77287;SDS011;66345;42.694;23.346;2023-05-21T04:19:32;16.45;;;7.55;;
77287;SDS011;66345;42.694;23.346;2023-05-21T04:21:58;17.48;;;8.45;;
77287;SDS011;66345;42.694;23.346;2023-05-21T04:24:24;14.05;;;8.20;;
77287;SDS011;66345;42.694;23.346;2023-05-21T04:26:50;13.63;;;7.80;;
77287;SDS011;66345;42.694;23.346;2023-05-21T04:29:17;15.07;;;8.40;;
77287;SDS011;66345;42.694;23.346;2023-05-21T04:31:46;16.63;;;8.40;;
77287;SDS011;66345;42.694;23.346;2023-05-21T04:34:14;16.93;;;8.23;;
77287;SDS011;66345;42.694;23.346;2023-05-21T04:36:44;15.20;;;8.30;;
77287;SDS011;66345;42.694;23.346;2023-05-21T04:39:13;13.27;;;8.20;;
77287;SDS011;66345;42.694;23.346;2023-05-21T04:41:39;14.90;;;8.20;;
77287;SDS011;66345;42.694;23.346;2023-05-21T04:44:07;14.50;;;9.10;;
77287;SDS011;66345;42.694;23.346;2023-05-21T04:46:33;17.25;;;8.30;;
77287;SDS011;66345;42.694;23.346;2023-05-21T04:48:59;15.15;;;8.32;;
77287;SDS011;66345;42.694;23.346;2023-05-21T04:51:29;13.52;;;7.88;;
77287;SDS011;66345;42.694;23.346;2023-05-21T04:53:55;13.63;;;8.15;;
77287;SDS011;66345;42.694;23.346;2023-05-21T04:56:22;15.85;;;8.05;;
77287;SDS011;66345;42.694;23.346;2023-05-21T04:58:51;17.23;;;8.07;;
77287;SDS011;66345;42.694;23.346;2023-05-21T05:01:20;14.15;;;7.65;;
77287;SDS011;66345;42.694;23.346;2023-05-21T05:03:49;15.25;;;8.48;;
77287;SDS011;66345;42.694;23.346;2023-05-21T05:06:15;12.27;;;7.68;;
77287;SDS011;66345;42.694;23.346;2023-05-21T05:08:41;13.45;;;7.68;;
77287;SDS011;66345;42.694;23.346;2023-05-21T05:11:06;14.50;;;6.97;;
77287;SDS011;66345;42.694;23.346;2023-05-21T05:13:32;11.70;;;6.30;;
77287;SDS011;66345;42.694;23.346;2023-05-21T05:15:58;9.95;;;6.38;;
77287;SDS011;66345;42.694;23.346;2023-05-21T05:18:25;14.57;;;6.00;;
77287;SDS011;66345;42.694;23.346;2023-05-21T05:20:51;10.80;;;5.35;;
77287;SDS011;66345;42.694;23.346;2023-05-21T05:23:16;11.67;;;5.77;;
77287;SDS011;66345;42.694;23.346;2023-05-21T05:25:42;11.95;;;5.90;;
77287;SDS011;66345;42.694;23.346;2023-05-21T05:28:07;10.73;;;5.83;;
77287;SDS011;66345;42.694;23.346;2023-05-21T05:30:33;14.83;;;6.07;;
77287;SDS011;66345;42.694;23.346;2023-05-21T05:32:59;13.52;;;6.15;;
77287;SDS011;66345;42.694;23.346;2023-05-21T05:35:25;8.82;;;5.50;;
77287;SDS011;66345;42.694;23.346;2023-05-21T05:37:50;11.02;;;5.63;;
77287;SDS011;66345;42.694;23.346;2023-05-21T05:40:16;13.80;;;5.90;;
77287;SDS011;66345;42.694;23.346;2023-05-21T05:42:42;10.23;;;5.40;;
77287;SDS011;66345;42.694;23.346;2023-05-21T05:45:07;13.20;;;6.13;;
77287;SDS011;66345;42.694;23.346;2023-05-21T05:47:33;12.48;;;5.72;;
77287;SDS011;66345;42.694;23.346;2023-05-21T05:49:58;10.68;;;5.82;;
77287;SDS011;66345;42.694;23.346;2023-05-21T05:52:24;13.33;;;6.17;;
77287;SDS011;66345;42.694;23.346;2023-05-21T05:54:49;11.20;;;6.47;;
77287;SDS011;66345;42.694;23.346;2023-05-21T05:57:15;11.67;;;6.00;;
77287;SDS011;66345;42.694;23.346;2023-05-21T05:59:40;11.57;;;6.22;;
77287;SDS011;66345;42.694;23.346;2023-05-21T06:02:06;17.13;;;7.37;;
77287;SDS011;66345;42.694;23.346;2023-05-21T06:04:31;13.67;;;7.73;;
77287;SDS011;66345;42.694;23.346;2023-05-21T06:06:56;12.53;;;7.97;;
77287;SDS011;66345;42.694;23.346;2023-05-21T06:09:23;14.32;;;7.65;;
77287;SDS011;66345;42.694;23.346;2023-05-21T06:11:48;13.80;;;7.30;;
77287;SDS011;66345;42.694;23.346;2023-05-21T06:14:14;11.95;;;6.57;;
77287;SDS011;66345;42.694;23.346;2023-05-21T06:16:40;11.43;;;7.07;;
77287;SDS011;66345;42.694;23.346;2023-05-21T06:19:06;9.77;;;6.20;;
77287;SDS011;66345;42.694;23.346;2023-05-21T06:21:31;10.52;;;5.95;;
77287;SDS011;66345;42.694;23.346;2023-05-21T06:23:56;11.27;;;6.17;;
77287;SDS011;66345;42.694;23.346;2023-05-21T06:26:22;11.90;;;5.67;;
77287;SDS011;66345;42.694;23.346;2023-05-21T06:28:48;8.90;;;5.30;;
77287;SDS011;66345;42.694;23.346;2023-05-21T06:31:13;10.82;;;5.07;;
77287;SDS011;66345;42.694;23.346;2023-05-21T06:33:40;10.80;;;5.45;;
77287;SDS011;66345;42.694;23.346;2023-05-21T06:36:06;9.95;;;4.35;;
77287;SDS011;66345;42.694;23.346;2023-05-21T06:38:31;9.87;;;5.23;;
77287;SDS011;66345;42.694;23.346;2023-05-21T06:40:57;8.10;;;4.43;;
77287;SDS011;66345;42.694;23.346;2023-05-21T06:43:22;6.57;;;3.80;;
77287;SDS011;66345;42.694;23.346;2023-05-21T06:45:48;10.90;;;4.15;;
77287;SDS011;66345;42.694;23.346;2023-05-21T06:48:14;9.13;;;4.15;;
77287;SDS011;66345;42.694;23.346;2023-05-21T06:50:43;8.23;;;4.20;;
77287;SDS011;66345;42.694;23.346;2023-05-21T06:53:08;9.48;;;4.10;;
77287;SDS011;66345;42.694;23.346;2023-05-21T06:55:34;7.17;;;3.93;;
77287;SDS011;66345;42.694;23.346;2023-05-21T06:58:00;8.63;;;4.77;;
77287;SDS011;66345;42.694;23.346;2023-05-21T07:00:25;7.95;;;4.32;;
77287;SDS011;66345;42.694;23.346;2023-05-21T07:02:51;8.27;;;4.00;;
77287;SDS011;66345;42.694;23.346;2023-05-21T07:05:16;6.77;;;4.20;;
77287;SDS011;66345;42.694;23.346;2023-05-21T07:07:42;9.43;;;4.30;;
77287;SDS011;66345;42.694;23.346;2023-05-21T07:10:07;10.40;;;4.70;;
77287;SDS011;66345;42.694;23.346;2023-05-21T07:12:34;7.63;;;4.97;;
77287;SDS011;66345;42.694;23.346;2023-05-21T07:15:00;6.73;;;4.23;;
77287;SDS011;66345;42.694;23.346;2023-05-21T07:17:25;9.43;;;4.30;;
77287;SDS011;66345;42.694;23.346;2023-05-21T07:19:51;11.30;;;4.53;;
77287;SDS011;66345;42.694;23.346;2023-05-21T07:22:16;8.80;;;4.33;;
77287;SDS011;66345;42.694;23.346;2023-05-21T07:24:41;6.87;;;4.10;;
77287;SDS011;66345;42.694;23.346;2023-05-21T07:27:07;8.47;;;4.30;;
77287;SDS011;66345;42.694;23.346;2023-05-21T07:29:32;8.63;;;4.40;;
77287;SDS011;66345;42.694;23.346;2023-05-21T07:31:58;9.23;;;4.60;;
77287;SDS011;66345;42.694;23.346;2023-05-21T07:34:24;10.43;;;4.07;;
77287;SDS011;66345;42.694;23.346;2023-05-21T07:36:50;9.23;;;4.67;;
77287;SDS011;66345;42.694;23.346;2023-05-21T07:39:15;7.47;;;4.30;;
77287;SDS011;66345;42.694;23.346;2023-05-21T07:41:42;8.32;;;4.70;;
77287;SDS011;66345;42.694;23.346;2023-05-21T07:44:07;7.07;;;4.13;;
77287;SDS011;66345;42.694;23.346;2023-05-21T07:46:33;8.03;;;4.40;;
77287;SDS011;66345;42.694;23.346;2023-05-21T07:48:59;10.55;;;5.15;;
77287;SDS011;66345;42.694;23.346;2023-05-21T07:51:24;9.87;;;4.83;;
77287;SDS011;66345;42.694;23.346;2023-05-21T07:53:51;10.05;;;4.85;;
77287;SDS011;66345;42.694;23.346;2023-05-21T07:56:16;6.90;;;4.10;;
77287;SDS011;66345;42.694;23.346;2023-05-21T07:58:42;6.83;;;3.70;;
77287;SDS011;66345;42.694;23.346;2023-05-21T08:01:09;7.07;;;3.17;;
77287;SDS011;66345;42.694;23.346;2023-05-21T08:03:35;6.63;;;3.35;;
77287;SDS011;66345;42.694;23.346;2023-05-21T08:06:01;7.97;;;3.40;;
77287;SDS011;66345;42.694;23.346;2023-05-21T08:08:26;7.30;;;3.53;;
77287;SDS011;66345;42.694;23.346;2023-05-21T08:10:52;6.80;;;3.28;;
77287;SDS011;66345;42.694;23.346;2023-05-21T08:13:17;6.33;;;3.10;;
77287;SDS011;66345;42.694;23.346;2023-05-21T08:15:43;6.60;;;3.03;;
77287;SDS011;66345;42.694;23.346;2023-05-21T08:18:08;6.97;;;2.90;;
77287;SDS011;66345;42.694;23.346;2023-05-21T08:20:35;9.60;;;3.00;;
77287;SDS011;66345;42.694;23.346;2023-05-21T08:23:01;7.05;;;3.10;;
77287;SDS011;66345;42.694;23.346;2023-05-21T08:25:27;5.13;;;2.77;;
77287;SDS011;66345;42.694;23.346;2023-05-21T08:27:52;12.48;;;3.42;;
77287;SDS011;66345;42.694;23.346;2023-05-21T08:30:18;6.17;;;3.00;;
77287;SDS011;66345;42.694;23.346;2023-05-21T08:32:44;8.32;;;3.20;;
77287;SDS011;66345;42.694;23.346;2023-05-21T08:35:09;6.30;;;2.87;;
77287;SDS011;66345;42.694;23.346;2023-05-21T08:37:35;7.47;;;3.30;;
77287;SDS011;66345;42.694;23.346;2023-05-21T08:40:00;8.15;;;3.75;;
77287;SDS011;66345;42.694;23.346;2023-05-21T08:42:38;12.93;;;3.17;;
77287;SDS011;66345;42.694;23.346;2023-05-21T08:45:07;5.30;;;2.90;;
77287;SDS011;66345;42.694;23.346;2023-05-21T08:47:37;8.65;;;3.58;;
77287;SDS011;66345;42.694;23.346;2023-05-21T08:50:09;8.20;;;3.67;;
77287;SDS011;66345;42.694;23.346;2023-05-21T08:52:40;9.70;;;3.25;;
77287;SDS011;66345;42.694;23.346;2023-05-21T08:55:06;7.50;;;3.30;;
77287;SDS011;66345;42.694;23.346;2023-05-21T08:57:32;7.00;;;3.28;;
77287;SDS011;66345;42.694;23.346;2023-05-21T08:59:58;6.40;;;3.07;;
77287;SDS011;66345;42.694;23.346;2023-05-21T09:02:26;9.20;;;3.15;;
77287;SDS011;66345;42.694;23.346;2023-05-21T09:04:54;8.75;;;3.30;;
77287;SDS011;66345;42.694;23.346;2023-05-21T09:07:24;5.67;;;3.20;;
77287;SDS011;66345;42.694;23.346;2023-05-21T09:09:54;9.43;;;3.55;;
77287;SDS011;66345;42.694;23.346;2023-05-21T09:12:23;8.30;;;3.35;;
77287;SDS011;66345;42.694;23.346;2023-05-21T09:14:49;7.47;;;2.95;;
77287;SDS011;66345;42.694;23.346;2023-05-21T09:17:15;5.80;;;3.00;;
77287;SDS011;66345;42.694;23.346;2023-05-21T09:22:41;11.00;;;3.83;;
77287;SDS011;66345;42.694;23.346;2023-05-21T09:25:12;8.52;;;3.08;;
77287;SDS011;66345;42.694;23.346;2023-05-21T09:27:39;7.57;;;3.50;;
77287;SDS011;66345;42.694;23.346;2023-05-21T09:30:11;6.20;;;2.87;;
77287;SDS011;66345;42.694;23.346;2023-05-21T09:32:38;5.60;;;3.00;;
77287;SDS011;66345;42.694;23.346;2023-05-21T09:35:08;6.10;;;2.80;;
77287;SDS011;66345;42.694;23.346;2023-05-21T09:37:41;6.82;;;2.80;;
77287;SDS011;66345;42.694;23.346;2023-05-21T09:40:13;6.30;;;2.73;;
77287;SDS011;66345;42.694;23.346;2023-05-21T09:42:49;9.90;;;2.85;;
77287;SDS011;66345;42.694;23.346;2023-05-21T09:47:46;5.57;;;2.85;;
77287;SDS011;66345;42.694;23.346;2023-05-21T09:50:12;6.30;;;2.80;;
77287;SDS011;66345;42.694;23.346;2023-05-21T09:52:42;8.40;;;3.00;;
77287;SDS011;66345;42.694;23.346;2023-05-21T09:55:11;5.15;;;3.00;;
77287;SDS011;66345;42.694;23.346;2023-05-21T09:57:41;6.50;;;3.00;;
77287;SDS011;66345;42.694;23.346;2023-05-21T10:00:08;6.65;;;3.17;;
77287;SDS011;66345;42.694;23.346;2023-05-21T10:02:41;7.60;;;3.28;;
77287;SDS011;66345;42.694;23.346;2023-05-21T10:05:10;8.80;;;3.08;;
77287;SDS011;66345;42.694;23.346;2023-05-21T10:07:37;6.32;;;3.05;;
77287;SDS011;66345;42.694;23.346;2023-05-21T10:10:06;6.23;;;2.73;;
77287;SDS011;66345;42.694;23.346;2023-05-21T10:12:37;5.20;;;3.20;;
77287;SDS011;66345;42.694;23.346;2023-05-21T10:15:10;6.80;;;3.35;;
77287;SDS011;66345;42.694;23.346;2023-05-21T10:17:40;8.35;;;3.83;;
77287;SDS011;66345;42.694;23.346;2023-05-21T10:20:07;6.10;;;3.75;;
77287;SDS011;66345;42.694;23.346;2023-05-21T10:22:35;6.30;;;2.90;;
77287;SDS011;66345;42.694;23.346;2023-05-21T10:25:01;6.97;;;3.10;;
77287;SDS011;66345;42.694;23.346;2023-05-21T10:27:27;7.32;;;3.55;;
77287;SDS011;66345;42.694;23.346;2023-05-21T10:29:55;8.95;;;2.92;;
77287;SDS011;66345;42.694;23.346;2023-05-21T10:32:22;7.85;;;3.30;;
77287;SDS011;66345;42.694;23.346;2023-05-21T10:34:52;6.57;;;2.90;;
77287;SDS011;66345;42.694;23.346;2023-05-21T10:37:18;8.10;;;2.90;;
77287;SDS011;66345;42.694;23.346;2023-05-21T10:39:47;6.75;;;2.85;;
77287;SDS011;66345;42.694;23.346;2023-05-21T10:42:20;5.78;;;2.80;;
77287;SDS011;66345;42.694;23.346;2023-05-21T11:01:52;7.63;;;2.90;;
77287;SDS011;66345;42.694;23.346;2023-05-21T11:04:26;7.20;;;2.90;;
77287;SDS011;66345;42.694;23.346;2023-05-21T11:06:54;9.90;;;3.10;;
77287;SDS011;66345;42.694;23.346;2023-05-21T11:09:22;5.90;;;2.80;;
77287;SDS011;66345;42.694;23.346;2023-05-21T11:14:32;6.10;;;2.90;;
77287;SDS011;66345;42.694;23.346;2023-05-21T11:22:28;8.05;;;3.40;;
77287;SDS011;66345;42.694;23.346;2023-05-21T11:24:59;7.33;;;3.00;;
77287;SDS011;66345;42.694;23.346;2023-05-21T11:29:54;7.10;;;3.17;;
77287;SDS011;66345;42.694;23.346;2023-05-21T11:32:20;8.67;;;3.20;;
77287;SDS011;66345;42.694;23.346;2023-05-21T11:34:49;6.35;;;3.10;;
77287;SDS011;66345;42.694;23.346;2023-05-21T11:39:53;5.28;;;2.90;;
77287;SDS011;66345;42.694;23.346;2023-05-21T11:42:29;7.60;;;3.20;;
77287;SDS011;66345;42.694;23.346;2023-05-21T11:44:56;7.07;;;3.07;;
77287;SDS011;66345;42.694;23.346;2023-05-21T11:47:23;7.63;;;3.17;;
77287;SDS011;66345;42.694;23.346;2023-05-21T11:49:50;10.05;;;3.08;;
77287;SDS011;66345;42.694;23.346;2023-05-21T11:52:16;6.93;;;3.30;;
77287;SDS011;66345;42.694;23.346;2023-05-21T11:54:47;5.82;;;3.00;;
77287;SDS011;66345;42.694;23.346;2023-05-21T11:57:15;5.82;;;2.88;;
77287;SDS011;66345;42.694;23.346;2023-05-21T11:59:46;6.15;;;3.20;;
77287;SDS011;66345;42.694;23.346;2023-05-21T12:02:14;8.85;;;3.22;;
77287;SDS011;66345;42.694;23.346;2023-05-21T12:04:44;9.68;;;3.22;;
77287;SDS011;66345;42.694;23.346;2023-05-21T12:07:12;7.30;;;3.00;;
77287;SDS011;66345;42.694;23.346;2023-05-21T12:09:43;6.18;;;3.05;;
77287;SDS011;66345;42.694;23.346;2023-05-21T12:12:20;8.23;;;3.00;;
77287;SDS011;66345;42.694;23.346;2023-05-21T12:14:49;7.38;;;3.28;;
77287;SDS011;66345;42.694;23.346;2023-05-21T12:17:18;7.63;;;3.30;;
77287;SDS011;66345;42.694;23.346;2023-05-21T12:19:45;7.35;;;3.70;;
77287;SDS011;66345;42.694;23.346;2023-05-21T12:22:11;8.73;;;3.42;;
77287;SDS011;66345;42.694;23.346;2023-05-21T12:24:37;6.93;;;3.20;;
77287;SDS011;66345;42.694;23.346;2023-05-21T12:27:04;7.18;;;3.28;;
77287;SDS011;66345;42.694;23.346;2023-05-21T12:29:38;7.82;;;2.92;;
77287;SDS011;66345;42.694;23.346;2023-05-21T12:32:07;9.35;;;3.20;;
77287;SDS011;66345;42.694;23.346;2023-05-21T12:34:37;7.50;;;3.13;;
77287;SDS011;66345;42.694;23.346;2023-05-21T12:37:09;7.20;;;3.47;;
77287;SDS011;66345;42.694;23.346;2023-05-21T12:39:39;9.63;;;3.60;;
77287;SDS011;66345;42.694;23.346;2023-05-21T12:42:07;9.63;;;3.40;;
77287;SDS011;66345;42.694;23.346;2023-05-21T12:44:33;7.30;;;3.50;;
77287;SDS011;66345;42.694;23.346;2023-05-21T12:46:58;8.47;;;3.87;;
77287;SDS011;66345;42.694;23.346;2023-05-21T12:50:25;8.15;;;2.72;;
77287;SDS011;66345;42.694;23.346;2023-05-21T12:52:23;6.93;;;3.30;;
77287;SDS011;66345;42.694;23.346;2023-05-21T12:54:50;11.17;;;3.80;;
77287;SDS011;66345;42.694;23.346;2023-05-21T12:59:50;7.90;;;3.63;;
77287;SDS011;66345;42.694;23.346;2023-05-21T13:02:27;8.75;;;3.65;;
77287;SDS011;66345;42.694;23.346;2023-05-21T13:04:58;7.45;;;3.40;;
77287;SDS011;66345;42.694;23.346;2023-05-21T13:07:25;6.43;;;3.57;;
77287;SDS011;66345;42.694;23.346;2023-05-21T13:09:52;9.80;;;3.97;;
77287;SDS011;66345;42.694;23.346;2023-05-21T13:12:22;8.88;;;3.53;;
77287;SDS011;66345;42.694;23.346;2023-05-21T13:14:49;7.53;;;3.63;;
77287;SDS011;66345;42.694;23.346;2023-05-21T13:17:15;9.48;;;4.22;;
77287;SDS011;66345;42.694;23.346;2023-05-21T13:19:41;12.20;;;4.07;;
77287;SDS011;66345;42.694;23.346;2023-05-21T13:22:07;8.85;;;4.32;;
77287;SDS011;66345;42.694;23.346;2023-05-21T13:24:34;12.50;;;4.50;;
77287;SDS011;66345;42.694;23.346;2023-05-21T13:27:00;8.13;;;3.88;;
77287;SDS011;66345;42.694;23.346;2023-05-21T13:29:26;9.55;;;4.68;;
77287;SDS011;66345;42.694;23.346;2023-05-21T13:31:51;10.73;;;3.80;;
77287;SDS011;66345;42.694;23.346;2023-05-21T13:34:17;8.23;;;3.70;;
77287;SDS011;66345;42.694;23.346;2023-05-21T13:36:42;8.38;;;3.80;;
77287;SDS011;66345;42.694;23.346;2023-05-21T13:39:08;9.27;;;3.50;;
77287;SDS011;66345;42.694;23.346;2023-05-21T13:41:33;10.47;;;3.30;;
77287;SDS011;66345;42.694;23.346;2023-05-21T13:43:58;6.43;;;3.20;;
77287;SDS011;66345;42.694;23.346;2023-05-21T13:46:24;7.97;;;3.60;;
77287;SDS011;66345;42.694;23.346;2023-05-21T13:48:50;9.52;;;2.97;;
77287;SDS011;66345;42.694;23.346;2023-05-21T13:51:15;9.33;;;4.30;;
77287;SDS011;66345;42.694;23.346;2023-05-21T13:53:41;6.68;;;3.25;;
77287;SDS011;66345;42.694;23.346;2023-05-21T13:56:06;9.13;;;3.70;;
77287;SDS011;66345;42.694;23.346;2023-05-21T13:58:32;10.00;;;3.43;;
77287;SDS011;66345;42.694;23.346;2023-05-21T14:01:01;7.53;;;3.35;;
77287;SDS011;66345;42.694;23.346;2023-05-21T14:03:27;8.43;;;3.70;;
77287;SDS011;66345;42.694;23.346;2023-05-21T14:05:53;6.77;;;3.27;;
77287;SDS011;66345;42.694;23.346;2023-05-21T14:08:19;10.02;;;3.60;;
77287;SDS011;66345;42.694;23.346;2023-05-21T14:10:47;8.05;;;3.30;;
77287;SDS011;66345;42.694;23.346;2023-05-21T14:13:13;8.55;;;3.35;;
77287;SDS011;66345;42.694;23.346;2023-05-21T14:15:40;7.70;;;3.60;;
77287;SDS011;66345;42.694;23.346;2023-05-21T14:18:06;9.82;;;4.18;;
77287;SDS011;66345;42.694;23.346;2023-05-21T14:20:36;8.23;;;3.80;;
77287;SDS011;66345;42.694;23.346;2023-05-21T14:23:02;6.68;;;3.80;;
77287;SDS011;66345;42.694;23.346;2023-05-21T14:25:27;8.50;;;3.67;;
77287;SDS011;66345;42.694;23.346;2023-05-21T14:27:53;9.27;;;3.80;;
77287;SDS011;66345;42.694;23.346;2023-05-21T14:30:18;6.32;;;3.58;;
77287;SDS011;66345;42.694;23.346;2023-05-21T14:32:45;8.27;;;3.70;;
77287;SDS011;66345;42.694;23.346;2023-05-21T14:35:10;7.43;;;4.00;;
77287;SDS011;66345;42.694;23.346;2023-05-21T14:37:36;7.60;;;4.30;;
77287;SDS011;66345;42.694;23.346;2023-05-21T14:40:02;9.07;;;4.27;;
77287;SDS011;66345;42.694;23.346;2023-05-21T14:42:29;10.38;;;5.00;;
77287;SDS011;66345;42.694;23.346;2023-05-21T14:44:54;11.70;;;4.90;;
77287;SDS011;66345;42.694;23.346;2023-05-21T14:47:20;8.57;;;4.50;;
77287;SDS011;66345;42.694;23.346;2023-05-21T14:49:45;13.45;;;5.10;;
77287;SDS011;66345;42.694;23.346;2023-05-21T14:52:11;11.23;;;4.90;;
77287;SDS011;66345;42.694;23.346;2023-05-21T14:54:37;12.70;;;6.00;;
77287;SDS011;66345;42.694;23.346;2023-05-21T14:57:02;11.13;;;4.75;;
77287;SDS011;66345;42.694;23.346;2023-05-21T14:59:28;9.63;;;4.87;;
77287;SDS011;66345;42.694;23.346;2023-05-21T15:01:54;12.30;;;4.60;;
77287;SDS011;66345;42.694;23.346;2023-05-21T15:04:19;9.48;;;4.47;;
77287;SDS011;66345;42.694;23.346;2023-05-21T15:06:45;11.57;;;4.47;;